createdAt,value
2018-05-06T00:00:50.973Z,1018.27
2018-05-06T00:01:50.973Z,1018.29
2018-05-06T00:02:50.889Z,1018.28
2018-05-06T00:03:50.841Z,1018.31
2018-05-06T00:04:50.841Z,1018.28
2018-05-06T00:05:50.766Z,1018.30
2018-05-06T00:06:50.721Z,1018.31
2018-05-06T00:07:50.680Z,1018.26
2018-05-06T00:08:50.643Z,1018.28
2018-05-06T00:09:50.628Z,1018.26
2018-05-06T00:10:50.570Z,1018.21
2018-05-06T00:11:50.533Z,1018.24
2018-05-06T00:12:50.516Z,1018.21
2018-05-06T00:13:50.451Z,1018.20
2018-05-06T00:14:50.437Z,1018.18
2018-05-06T00:15:50.361Z,1018.15
2018-05-06T00:16:50.323Z,1018.14
2018-05-06T00:17:50.286Z,1018.14
2018-05-06T00:18:50.260Z,1018.08
2018-05-06T00:19:50.246Z,1018.11
2018-05-06T00:20:50.156Z,1018.09
2018-05-06T00:21:50.125Z,1018.11
2018-05-06T00:22:50.088Z,1018.15
2018-05-06T00:23:50.052Z,1018.10
2018-05-06T00:24:50.035Z,1018.10
2018-05-06T00:25:49.967Z,1018.12
2018-05-06T00:26:49.931Z,1018.11
2018-05-06T00:27:49.877Z,1018.11
2018-05-06T00:28:49.840Z,1018.11
2018-05-06T00:29:49.831Z,1018.11
2018-05-06T00:30:49.772Z,1018.14
2018-05-06T00:31:49.737Z,1018.14
2018-05-06T00:32:49.695Z,1018.14
2018-05-06T00:33:49.669Z,1018.07
2018-05-06T00:34:49.614Z,1018.09
2018-05-06T00:35:49.564Z,1018.10
2018-05-06T00:36:49.527Z,1018.13
2018-05-06T00:37:49.484Z,1018.06
2018-05-06T00:38:49.470Z,1018.07
2018-05-06T00:39:49.397Z,1018.04
2018-05-06T00:40:49.357Z,1018.05
2018-05-06T00:41:49.321Z,1018.08
2018-05-06T00:42:49.284Z,1018.04
2018-05-06T00:43:49.271Z,1018.04
2018-05-06T00:44:49.206Z,1018.06
2018-05-06T00:45:49.162Z,1018.04
2018-05-06T00:46:49.120Z,1018.01
2018-05-06T00:47:49.074Z,1018.05
2018-05-06T00:48:49.071Z,1018.05
2018-05-06T00:49:48.997Z,1018.04
2018-05-06T00:50:48.962Z,1017.99
2018-05-06T00:51:48.924Z,1018.08
2018-05-06T00:52:48.874Z,1018.06
2018-05-06T00:53:48.863Z,1018.03
2018-05-06T00:54:48.860Z,1018.01
2018-05-06T00:55:48.766Z,1017.98
2018-05-06T00:56:48.724Z,1018.03
2018-05-06T00:57:48.690Z,1018.05
2018-05-06T00:58:48.658Z,1018.02
2018-05-06T00:59:48.590Z,1018.06
2018-05-06T01:00:48.555Z,1018.05
2018-05-06T01:01:48.510Z,1018.07
2018-05-06T01:02:48.591Z,1018.04
2018-05-06T01:03:48.461Z,1018.10
2018-05-06T01:04:48.395Z,1018.09
2018-05-06T01:05:48.359Z,1018.08
2018-05-06T01:06:48.319Z,1018.08
2018-05-06T01:07:48.296Z,1018.07
2018-05-06T01:08:48.233Z,1018.07
2018-05-06T01:09:48.198Z,1018.10
2018-05-06T01:10:48.148Z,1018.03
2018-05-06T01:11:48.109Z,1018.03
2018-05-06T01:12:48.095Z,1018.08
2018-05-06T01:13:48.026Z,1018.03
2018-05-06T01:14:47.992Z,1018.02
2018-05-06T01:15:47.952Z,1017.98
2018-05-06T01:16:47.910Z,1018.02
2018-05-06T01:17:47.897Z,1018.02
2018-05-06T01:18:47.821Z,1018.01
2018-05-06T01:19:47.789Z,1018.01
2018-05-06T01:20:47.750Z,1018.05
2018-05-06T01:21:47.697Z,1018.07
2018-05-06T01:22:47.694Z,1018.07
2018-05-06T01:23:47.627Z,1018.07
2018-05-06T01:24:47.582Z,1018.08
2018-05-06T01:25:47.535Z,1018.10
2018-05-06T01:26:47.508Z,1018.09
2018-05-06T01:27:47.485Z,1018.13
2018-05-06T01:28:47.423Z,1018.13
2018-05-06T01:29:47.387Z,1018.14
2018-05-06T01:30:47.336Z,1018.15
2018-05-06T01:31:47.305Z,1018.15
2018-05-06T01:32:47.287Z,1018.15
2018-05-06T01:33:47.218Z,1018.15
2018-05-06T01:34:47.184Z,1018.14
2018-05-06T01:35:47.143Z,1018.10
2018-05-06T01:36:47.151Z,1018.12
2018-05-06T01:37:47.094Z,1018.12
2018-05-06T01:38:47.011Z,1018.11
2018-05-06T01:39:46.976Z,1018.12
2018-05-06T01:40:57.120Z,1018.11
2018-05-06T01:41:46.893Z,1018.11
2018-05-06T01:42:46.875Z,1018.09
2018-05-06T01:43:46.805Z,1018.13
2018-05-06T01:44:46.778Z,1018.13
2018-05-06T01:45:46.734Z,1018.09
2018-05-06T01:46:46.715Z,1018.09
2018-05-06T01:47:46.654Z,1018.08
2018-05-06T01:48:46.607Z,1018.08
2018-05-06T01:49:46.566Z,1018.10
2018-05-06T01:50:46.528Z,1018.13
2018-05-06T01:51:46.504Z,1018.10
2018-05-06T01:52:46.452Z,1018.08
2018-05-06T01:53:46.410Z,1018.07
2018-05-06T01:54:46.364Z,1018.05
2018-05-06T01:55:46.322Z,1018.05
2018-05-06T01:56:46.309Z,1018.07
2018-05-06T01:57:46.246Z,1018.08
2018-05-06T01:58:46.202Z,1018.12
2018-05-06T01:59:46.170Z,1018.11
2018-05-06T02:00:46.141Z,1018.09
2018-05-06T02:01:46.103Z,1018.13
2018-05-06T02:02:46.043Z,1018.13
2018-05-06T02:03:45.993Z,1018.15
2018-05-06T02:04:45.982Z,1018.13
2018-05-06T02:05:45.918Z,1018.12
2018-05-06T02:06:45.899Z,1018.16
2018-05-06T02:07:45.839Z,1018.13
2018-05-06T02:08:45.787Z,1018.11
2018-05-06T02:09:45.755Z,1018.12
2018-05-06T02:10:45.715Z,1018.11
2018-05-06T02:11:45.703Z,1018.11
2018-05-06T02:12:45.627Z,1018.09
2018-05-06T02:13:45.594Z,1018.10
2018-05-06T02:14:45.549Z,1018.12
2018-05-06T02:15:45.505Z,1018.17
2018-05-06T02:16:45.500Z,1018.13
2018-05-06T02:17:45.430Z,1018.13
2018-05-06T02:18:45.390Z,1018.20
2018-05-06T02:19:45.352Z,1018.20
2018-05-06T02:20:45.329Z,1018.20
2018-05-06T02:21:45.269Z,1018.20
2018-05-06T02:22:45.226Z,1018.20
2018-05-06T02:23:45.183Z,1018.16
2018-05-06T02:24:45.150Z,1018.16
2018-05-06T02:25:45.127Z,1018.13
2018-05-06T02:26:45.063Z,1018.12
2018-05-06T02:27:45.075Z,1018.12
2018-05-06T02:28:44.985Z,1018.09
2018-05-06T02:29:44.941Z,1018.09
2018-05-06T02:30:44.922Z,1018.07
2018-05-06T02:31:44.863Z,1018.08
2018-05-06T02:32:44.813Z,1018.10
2018-05-06T02:33:44.772Z,1018.09
2018-05-06T02:34:44.732Z,1018.08
2018-05-06T02:35:44.722Z,1018.07
2018-05-06T02:36:44.669Z,1018.05
2018-05-06T02:37:44.617Z,1018.06
2018-05-06T02:38:44.578Z,1018.00
2018-05-06T02:39:44.533Z,1018.07
2018-05-06T02:40:44.486Z,1018.04
2018-05-06T02:41:44.476Z,1018.02
2018-05-06T02:42:44.409Z,1018.02
2018-05-06T02:43:44.375Z,1018.01
2018-05-06T02:44:44.323Z,1018.00
2018-05-06T02:45:44.285Z,1017.97
2018-05-06T02:46:44.266Z,1018.02
2018-05-06T02:47:44.198Z,1017.98
2018-05-06T02:48:44.169Z,1017.98
2018-05-06T02:49:44.125Z,1018.00
2018-05-06T02:50:44.080Z,1017.97
2018-05-06T02:51:53.663Z,1017.97
2018-05-06T02:52:43.999Z,1017.95
2018-05-06T02:53:43.953Z,1017.97
2018-05-06T02:54:43.923Z,1017.95
2018-05-06T02:55:43.877Z,1017.92
2018-05-06T02:56:43.833Z,1017.96
2018-05-06T02:57:43.815Z,1017.93
2018-05-06T02:58:43.756Z,1017.90
2018-05-06T02:59:43.714Z,1017.91
2018-05-06T03:00:43.668Z,1017.95
2018-05-06T03:01:43.634Z,1017.96
2018-05-06T03:02:43.579Z,1017.94
2018-05-06T03:03:43.576Z,1017.93
2018-05-06T03:04:43.507Z,1017.95
2018-05-06T03:05:43.459Z,1017.90
2018-05-06T03:06:43.425Z,1017.90
2018-05-06T03:07:43.382Z,1017.92
2018-05-06T03:08:43.343Z,1017.91
2018-05-06T03:09:43.331Z,1017.94
2018-05-06T03:10:43.256Z,1017.93
2018-05-06T03:11:43.217Z,1017.96
2018-05-06T03:12:43.188Z,1017.95
2018-05-06T03:13:43.145Z,1017.98
2018-05-06T03:14:51.685Z,1018.02
2018-05-06T03:15:43.046Z,1017.99
2018-05-06T03:16:43.020Z,1017.98
2018-05-06T03:17:42.979Z,1018.00
2018-05-06T03:18:42.930Z,1018.01
2018-05-06T03:19:42.895Z,1018.04
2018-05-06T03:20:42.871Z,1018.02
2018-05-06T03:21:42.801Z,1018.02
2018-05-06T03:22:42.764Z,1018.01
2018-05-06T03:23:42.715Z,1018.02
2018-05-06T03:24:42.684Z,1017.98
2018-05-06T03:25:42.641Z,1018.00
2018-05-06T03:26:42.618Z,1017.97
2018-05-06T03:27:42.556Z,1017.99
2018-05-06T03:28:42.523Z,1018.01
2018-05-06T03:29:42.475Z,1018.02
2018-05-06T03:30:42.438Z,1018.02
2018-05-06T03:31:42.426Z,1018.05
2018-05-06T03:32:42.345Z,1018.03
2018-05-06T03:33:42.310Z,1018.02
2018-05-06T03:34:42.263Z,1018.01
2018-05-06T03:35:42.221Z,1018.00
2018-05-06T03:36:42.190Z,1018.00
2018-05-06T03:37:51.732Z,1017.99
2018-05-06T03:38:42.094Z,1017.98
2018-05-06T03:39:42.063Z,1017.98
2018-05-06T03:40:42.026Z,1017.99
2018-05-06T03:41:41.988Z,1017.98
2018-05-06T03:42:41.927Z,1018.05
2018-05-06T03:43:41.917Z,1017.99
2018-05-06T03:44:41.851Z,1017.96
2018-05-06T03:45:41.810Z,1017.97
2018-05-06T03:46:41.775Z,1017.96
2018-05-06T03:47:41.733Z,1017.99
2018-05-06T03:48:41.723Z,1018.01
2018-05-06T03:49:41.651Z,1018.01
2018-05-06T03:50:41.601Z,1018.01
2018-05-06T03:51:41.572Z,1018.02
2018-05-06T03:52:41.523Z,1018.01
2018-05-06T03:53:48.205Z,1018.07
2018-05-06T03:54:41.482Z,1018.03
2018-05-06T03:55:41.399Z,1018.05
2018-05-06T03:56:41.366Z,1018.05
2018-05-06T03:57:41.311Z,1018.06
2018-05-06T03:58:41.277Z,1018.07
2018-05-06T03:59:41.238Z,1018.06
2018-05-06T04:00:51.741Z,1018.05
2018-05-06T04:01:41.153Z,1018.07
2018-05-06T04:02:41.107Z,1018.05
2018-05-06T04:03:41.063Z,1018.07
2018-05-06T04:04:41.033Z,1018.11
2018-05-06T04:05:41.092Z,1018.08
2018-05-06T04:06:40.947Z,1018.10
2018-05-06T04:07:40.906Z,1018.09
2018-05-06T04:08:40.858Z,1018.14
2018-05-06T04:09:40.817Z,1018.13
2018-05-06T04:10:40.780Z,1018.14
2018-05-06T04:11:40.769Z,1018.10
2018-05-06T04:12:40.693Z,1018.10
2018-05-06T04:13:40.652Z,1018.09
2018-05-06T04:14:40.611Z,1018.11
2018-05-06T04:15:40.568Z,1018.09
2018-05-06T04:16:40.557Z,1018.11
2018-05-06T04:17:40.489Z,1018.15
2018-05-06T04:18:40.447Z,1018.19
2018-05-06T04:19:40.409Z,1018.14
2018-05-06T04:20:40.356Z,1018.14
2018-05-06T04:21:40.353Z,1018.10
2018-05-06T04:22:40.280Z,1018.11
2018-05-06T04:23:40.236Z,1018.13
2018-05-06T04:24:40.204Z,1018.08
2018-05-06T04:25:40.165Z,1018.04
2018-05-06T04:26:40.116Z,1018.04
2018-05-06T04:27:40.099Z,1018.05
2018-05-06T04:28:40.040Z,1018.06
2018-05-06T04:29:39.995Z,1018.06
2018-05-06T04:30:39.950Z,1018.05
2018-05-06T04:31:39.917Z,1018.05
2018-05-06T04:32:39.861Z,1018.08
2018-05-06T04:33:39.848Z,1018.10
2018-05-06T04:34:39.783Z,1018.12
2018-05-06T04:35:39.739Z,1018.15
2018-05-06T04:36:39.708Z,1018.12
2018-05-06T04:37:39.665Z,1018.17
2018-05-06T04:38:39.650Z,1018.18
2018-05-06T04:39:39.584Z,1018.16
2018-05-06T04:40:39.533Z,1018.17
2018-05-06T04:41:39.494Z,1018.20
2018-05-06T04:42:39.461Z,1018.17
2018-05-06T04:43:39.423Z,1018.19
2018-05-06T04:44:39.392Z,1018.19
2018-05-06T04:45:39.330Z,1018.23
2018-05-06T04:46:39.290Z,1018.23
2018-05-06T04:47:39.246Z,1018.18
2018-05-06T04:48:39.235Z,1018.18
2018-05-06T04:49:39.200Z,1018.22
2018-05-06T04:50:39.133Z,1018.24
2018-05-06T04:51:39.092Z,1018.25
2018-05-06T04:52:39.043Z,1018.22
2018-05-06T04:53:39.007Z,1018.24
2018-05-06T04:54:38.961Z,1018.23
2018-05-06T04:55:38.938Z,1018.27
2018-05-06T04:56:38.886Z,1018.29
2018-05-06T04:57:38.841Z,1018.33
2018-05-06T04:58:38.796Z,1018.35
2018-05-06T04:59:38.781Z,1018.41
2018-05-06T05:00:38.737Z,1018.44
2018-05-06T05:01:38.679Z,1018.46
2018-05-06T05:02:38.639Z,1018.43
2018-05-06T05:03:38.603Z,1018.46
2018-05-06T05:04:38.556Z,1018.49
2018-05-06T05:05:38.540Z,1018.50
2018-05-06T05:06:38.472Z,1018.52
2018-05-06T05:07:38.426Z,1018.53
2018-05-06T05:08:38.401Z,1018.52
2018-05-06T05:09:38.368Z,1018.51
2018-05-06T05:10:38.320Z,1018.51
2018-05-06T05:11:38.308Z,1018.58
2018-05-06T05:12:38.235Z,1018.56
2018-05-06T05:13:38.195Z,1018.61
2018-05-06T05:14:38.163Z,1018.60
2018-05-06T05:15:38.124Z,1018.59
2018-05-06T05:16:38.106Z,1018.58
2018-05-06T05:17:38.038Z,1018.63
2018-05-06T05:18:38.006Z,1018.55
2018-05-06T05:19:37.972Z,1018.60
2018-05-06T05:20:37.938Z,1018.61
2018-05-06T05:21:37.892Z,1018.62
2018-05-06T05:22:37.896Z,1018.65
2018-05-06T05:23:37.834Z,1018.66
2018-05-06T05:24:37.778Z,1018.68
2018-05-06T05:25:37.750Z,1018.65
2018-05-06T05:26:37.717Z,1018.68
2018-05-06T05:27:37.665Z,1018.68
2018-05-06T05:28:37.669Z,1018.68
2018-05-06T05:29:37.610Z,1018.74
2018-05-06T05:30:37.564Z,1018.71
2018-05-06T05:31:37.543Z,1018.71
2018-05-06T05:32:37.500Z,1018.70
2018-05-06T05:33:37.456Z,1018.70
2018-05-06T05:34:37.451Z,1018.68
2018-05-06T05:35:37.393Z,1018.72
2018-05-06T05:36:37.349Z,1018.72
2018-05-06T05:37:37.315Z,1018.77
2018-05-06T05:38:37.277Z,1018.76
2018-05-06T05:39:37.267Z,1018.79
2018-05-06T05:40:37.217Z,1018.76
2018-05-06T05:41:37.179Z,1018.83
2018-05-06T05:42:37.148Z,1018.81
2018-05-06T05:43:37.112Z,1018.87
2018-05-06T05:44:37.072Z,1018.86
2018-05-06T05:45:37.061Z,1018.84
2018-05-06T05:46:37.009Z,1018.89
2018-05-06T05:47:36.988Z,1018.91
2018-05-06T05:48:36.937Z,1018.92
2018-05-06T05:49:36.901Z,1018.91
2018-05-06T05:50:36.918Z,1018.95
2018-05-06T05:51:36.858Z,1018.96
2018-05-06T05:52:36.804Z,1018.97
2018-05-06T05:53:36.763Z,1018.98
2018-05-06T05:54:36.730Z,1019.00
2018-05-06T05:55:36.754Z,1018.96
2018-05-06T05:56:36.688Z,1018.98
2018-05-06T05:57:36.635Z,1018.97
2018-05-06T05:58:36.605Z,1018.99
2018-05-06T05:59:36.553Z,1019.00
2018-05-06T06:00:36.537Z,1019.02
2018-05-06T06:01:36.570Z,1019.01
2018-05-06T06:02:36.492Z,1019.01
2018-05-06T06:03:36.428Z,1019.04
2018-05-06T06:04:36.409Z,1019.01
2018-05-06T06:05:36.369Z,1019.04
2018-05-06T06:06:36.331Z,1019.14
2018-05-06T06:07:36.308Z,1019.14
2018-05-06T06:08:36.281Z,1019.14
2018-05-06T06:09:36.234Z,1019.10
2018-05-06T06:10:36.192Z,1019.10
2018-05-06T06:11:36.159Z,1019.10
2018-05-06T06:12:36.144Z,1019.12
2018-05-06T06:13:36.135Z,1019.12
2018-05-06T06:14:36.066Z,1019.16
2018-05-06T06:15:36.100Z,1019.20
2018-05-06T06:16:35.996Z,1019.41
2018-05-06T06:17:35.971Z,1019.53
2018-05-06T06:18:35.939Z,1019.54
2018-05-06T06:19:35.932Z,1019.57
2018-05-06T06:20:35.866Z,1019.55
2018-05-06T06:21:35.839Z,1019.46
2018-05-06T06:22:35.841Z,1019.44
2018-05-06T06:23:35.774Z,1019.47
2018-05-06T06:24:35.774Z,1019.50
2018-05-06T06:25:35.737Z,1019.47
2018-05-06T06:26:35.676Z,1019.49
2018-05-06T06:27:35.650Z,1019.48
2018-05-06T06:28:35.609Z,1019.47
2018-05-06T06:29:35.580Z,1019.51
2018-05-06T06:30:35.553Z,1019.54
2018-05-06T06:31:35.539Z,1019.57
2018-05-06T06:32:35.489Z,1019.62
2018-05-06T06:33:35.455Z,1019.67
2018-05-06T06:34:35.423Z,1019.72
2018-05-06T06:35:35.383Z,1019.79
2018-05-06T06:36:35.391Z,1019.86
2018-05-06T06:37:35.328Z,1019.97
2018-05-06T06:38:35.302Z,1020.02
2018-05-06T06:39:35.269Z,1020.11
2018-05-06T06:40:35.227Z,1020.08
2018-05-06T06:41:35.223Z,1020.10
2018-05-06T06:42:35.173Z,1020.25
2018-05-06T06:43:35.152Z,1020.32
2018-05-06T06:44:35.114Z,1020.31
2018-05-06T06:45:35.087Z,1020.39
2018-05-06T06:46:35.073Z,1020.38
2018-05-06T06:47:35.053Z,1020.57
2018-05-06T06:48:34.977Z,1020.70
2018-05-06T06:49:34.949Z,1020.67
2018-05-06T06:50:34.935Z,1020.70
2018-05-06T06:51:34.927Z,1020.67
2018-05-06T06:52:34.855Z,1020.68
2018-05-06T06:53:45.295Z,1020.69
2018-05-06T06:54:34.809Z,1020.56
2018-05-06T06:55:34.796Z,1020.64
2018-05-06T06:56:34.738Z,1020.63
2018-05-06T06:57:34.741Z,1020.53
2018-05-06T06:58:34.672Z,1020.51
2018-05-06T06:59:34.645Z,1020.50
2018-05-06T07:00:34.615Z,1020.39
2018-05-06T07:01:34.579Z,1020.27
2018-05-06T07:02:34.575Z,1020.18
2018-05-06T07:03:34.553Z,1020.15
2018-05-06T07:04:34.552Z,1020.10
2018-05-06T07:05:34.450Z,1020.06
2018-05-06T07:06:43.872Z,1020.02
2018-05-06T07:07:34.442Z,1020.01
2018-05-06T07:08:34.401Z,1019.96
2018-05-06T07:09:34.343Z,1020.01
2018-05-06T07:10:34.315Z,1020.00
2018-05-06T07:11:34.272Z,1019.96
2018-05-06T07:12:34.255Z,1019.95
2018-05-06T07:13:34.301Z,1019.95
2018-05-06T07:14:34.236Z,1019.88
2018-05-06T07:15:34.160Z,1019.91
2018-05-06T07:16:34.123Z,1019.93
2018-05-06T07:17:34.093Z,1019.89
2018-05-06T07:18:34.072Z,1019.92
2018-05-06T07:19:34.041Z,1019.94
2018-05-06T07:20:34.045Z,1019.93
2018-05-06T07:21:33.968Z,1019.92
2018-05-06T07:22:33.939Z,1019.92
2018-05-06T07:23:33.912Z,1019.95
2018-05-06T07:24:33.882Z,1019.92
2018-05-06T07:25:33.847Z,1019.92
2018-05-06T07:26:33.841Z,1019.84
2018-05-06T07:27:33.793Z,1019.88
2018-05-06T07:28:33.748Z,1019.88
2018-05-06T07:29:33.722Z,1019.84
2018-05-06T07:30:33.699Z,1019.86
2018-05-06T07:31:33.687Z,1019.84
2018-05-06T07:32:33.635Z,1019.82
2018-05-06T07:33:33.604Z,1019.83
2018-05-06T07:34:33.574Z,1019.77
2018-05-06T07:35:33.538Z,1019.78
2018-05-06T07:36:33.519Z,1019.78
2018-05-06T07:37:33.505Z,1019.79
2018-05-06T07:38:33.452Z,1019.75
2018-05-06T07:39:33.427Z,1019.77
2018-05-06T07:40:33.385Z,1019.79
2018-05-06T07:41:33.403Z,1019.79
2018-05-06T07:42:33.357Z,1019.80
2018-05-06T07:43:33.294Z,1019.81
2018-05-06T07:44:33.270Z,1019.81
2018-05-06T07:45:33.240Z,1019.78
2018-05-06T07:46:33.205Z,1019.79
2018-05-06T07:47:33.190Z,1019.79
2018-05-06T07:48:33.164Z,1019.79
2018-05-06T07:49:33.115Z,1019.79
2018-05-06T07:50:33.090Z,1019.79
2018-05-06T07:51:33.062Z,1019.82
2018-05-06T07:52:33.017Z,1019.77
2018-05-06T07:53:33.020Z,1019.78
2018-05-06T07:54:32.962Z,1019.76
2018-05-06T07:55:32.952Z,1019.75
2018-05-06T07:56:32.909Z,1019.79
2018-05-06T07:57:32.877Z,1019.77
2018-05-06T07:58:32.850Z,1019.74
2018-05-06T07:59:32.850Z,1019.75
2018-05-06T08:00:32.776Z,1019.75
2018-05-06T08:01:32.761Z,1019.81
2018-05-06T08:02:32.724Z,1019.77
2018-05-06T08:03:32.692Z,1019.78
2018-05-06T08:04:32.667Z,1019.85
2018-05-06T08:05:32.662Z,1019.80
2018-05-06T08:06:32.604Z,1019.76
2018-05-06T08:07:32.569Z,1019.79
2018-05-06T08:08:32.558Z,1019.81
2018-05-06T08:09:32.519Z,1019.81
2018-05-06T08:10:32.487Z,1019.86
2018-05-06T08:11:32.490Z,1019.91
2018-05-06T08:12:32.425Z,1019.89
2018-05-06T08:13:32.396Z,1019.92
2018-05-06T08:14:32.371Z,1019.93
2018-05-06T08:15:32.332Z,1019.91
2018-05-06T08:16:42.892Z,1019.91
2018-05-06T08:17:32.289Z,1019.95
2018-05-06T08:18:32.249Z,1019.93
2018-05-06T08:19:32.222Z,1019.87
2018-05-06T08:20:32.195Z,1019.86
2018-05-06T08:21:32.210Z,1019.90
2018-05-06T08:22:32.134Z,1019.92
2018-05-06T08:23:32.151Z,1019.88
2018-05-06T08:24:32.079Z,1019.91
2018-05-06T08:25:32.076Z,1019.94
2018-05-06T08:26:32.082Z,1019.90
2018-05-06T08:27:31.993Z,1019.87
2018-05-06T08:28:32.185Z,1019.91
2018-05-06T08:29:31.941Z,1019.87
2018-05-06T08:30:31.900Z,1019.89
2018-05-06T08:31:31.879Z,1019.89
2018-05-06T08:32:31.870Z,1019.90
2018-05-06T08:33:31.808Z,1019.87
2018-05-06T08:34:31.796Z,1019.89
2018-05-06T08:35:31.758Z,1019.85
2018-05-06T08:36:31.738Z,1019.90
2018-05-06T08:37:31.730Z,1019.88
2018-05-06T08:38:31.675Z,1019.84
2018-05-06T08:39:31.649Z,1019.86
2018-05-06T08:40:31.624Z,1019.88
2018-05-06T08:41:31.596Z,1019.88
2018-05-06T08:42:31.588Z,1019.84
2018-05-06T08:43:31.533Z,1019.89
2018-05-06T08:44:31.519Z,1019.92
2018-05-06T08:45:31.470Z,1019.94
2018-05-06T08:46:31.464Z,1019.93
2018-05-06T08:47:31.429Z,1019.94
2018-05-06T08:48:31.420Z,1019.97
2018-05-06T08:49:31.370Z,1019.98
2018-05-06T08:50:31.333Z,1019.95
2018-05-06T08:51:31.382Z,1019.95
2018-05-06T08:52:31.289Z,1019.93
2018-05-06T08:53:31.285Z,1019.98
2018-05-06T08:54:31.223Z,1019.96
2018-05-06T08:55:31.192Z,1019.96
2018-05-06T08:56:31.165Z,1019.98
2018-05-06T08:57:31.150Z,1019.99
2018-05-06T08:58:31.156Z,1020.01
2018-05-06T08:59:31.141Z,1019.98
2018-05-06T09:00:31.062Z,1020.01
2018-05-06T09:01:31.045Z,1020.03
2018-05-06T09:02:31.008Z,1020.11
2018-05-06T09:03:30.988Z,1020.10
2018-05-06T09:04:30.990Z,1020.17
2018-05-06T09:05:30.928Z,1020.25
2018-05-06T09:06:30.905Z,1020.25
2018-05-06T09:07:31.015Z,1020.34
2018-05-06T09:08:30.857Z,1020.45
2018-05-06T09:09:30.815Z,1020.64
2018-05-06T09:10:30.829Z,1020.54
2018-05-06T09:11:30.782Z,1020.38
2018-05-06T09:12:30.758Z,1020.27
2018-05-06T09:13:30.721Z,1020.27
2018-05-06T09:14:30.720Z,1020.19
2018-05-06T09:15:30.701Z,1020.14
2018-05-06T09:16:30.632Z,1020.25
2018-05-06T09:17:30.612Z,1020.28
2018-05-06T09:18:30.590Z,1020.23
2018-05-06T09:19:30.568Z,1020.24
2018-05-06T09:20:30.546Z,1020.26
2018-05-06T09:21:30.536Z,1020.23
2018-05-06T09:22:30.489Z,1020.13
2018-05-06T09:23:30.453Z,1020.10
2018-05-06T09:24:30.447Z,1020.07
2018-05-06T09:25:30.470Z,1020.09
2018-05-06T09:26:30.425Z,1020.18
2018-05-06T09:27:30.352Z,1020.22
2018-05-06T09:28:30.323Z,1020.08
2018-05-06T09:29:30.306Z,1020.05
2018-05-06T09:30:30.305Z,1020.25
2018-05-06T09:31:30.257Z,1020.31
2018-05-06T09:32:30.286Z,1020.23
2018-05-06T09:33:30.282Z,1020.18
2018-05-06T09:34:30.194Z,1020.30
2018-05-06T09:35:30.156Z,1020.16
2018-05-06T09:36:30.133Z,1019.94
2018-05-06T09:37:30.141Z,1019.99
2018-05-06T09:38:30.090Z,1020.05
2018-05-06T09:39:30.059Z,1020.17
2018-05-06T09:40:30.020Z,1020.11
2018-05-06T09:41:30.001Z,1019.89
2018-05-06T09:42:29.981Z,1019.85
2018-05-06T09:43:29.987Z,1019.83
2018-05-06T09:44:29.944Z,1019.78
2018-05-06T09:45:29.903Z,1019.80
2018-05-06T09:46:29.880Z,1019.84
2018-05-06T09:47:29.883Z,1019.87
2018-05-06T09:48:29.854Z,1019.78
2018-05-06T09:49:29.805Z,1019.66
2018-05-06T09:50:29.798Z,1019.68
2018-05-06T09:51:29.764Z,1019.72
2018-05-06T09:52:29.741Z,1019.68
2018-05-06T09:53:29.732Z,1019.61
2018-05-06T09:54:29.733Z,1019.55
2018-05-06T09:55:29.657Z,1019.52
2018-05-06T09:56:29.659Z,1019.54
2018-05-06T09:57:29.622Z,1019.57
2018-05-06T09:58:29.616Z,1019.60
2018-05-06T09:59:29.580Z,1019.57
2018-05-06T10:00:29.541Z,1019.55
2018-05-06T10:01:29.537Z,1019.53
2018-05-06T10:02:29.505Z,1019.49
2018-05-06T10:03:29.530Z,1019.47
2018-05-06T10:04:29.455Z,1019.47
2018-05-06T10:05:29.433Z,1019.45
2018-05-06T10:06:29.406Z,1019.38
2018-05-06T10:07:29.375Z,1019.31
2018-05-06T10:08:29.392Z,1019.28
2018-05-06T10:09:29.341Z,1019.32
2018-05-06T10:10:29.332Z,1019.36
2018-05-06T10:11:29.298Z,1019.34
2018-05-06T10:12:29.251Z,1019.28
2018-05-06T10:13:29.229Z,1019.25
2018-05-06T10:14:29.254Z,1019.29
2018-05-06T10:15:29.210Z,1019.27
2018-05-06T10:16:29.180Z,1019.28
2018-05-06T10:17:29.168Z,1019.26
2018-05-06T10:18:29.142Z,1019.22
2018-05-06T10:19:29.086Z,1019.19
2018-05-06T10:20:29.082Z,1019.20
2018-05-06T10:21:29.043Z,1019.12
2018-05-06T10:22:29.041Z,1019.15
2018-05-06T10:23:29.010Z,1019.18
2018-05-06T10:24:28.982Z,1019.12
2018-05-06T10:25:28.987Z,1019.04
2018-05-06T10:26:28.926Z,1019.03
2018-05-06T10:27:28.942Z,1019.00
2018-05-06T10:28:28.889Z,1019.09
2018-05-06T10:29:28.866Z,1019.07
2018-05-06T10:30:28.858Z,1019.04
2018-05-06T10:31:28.828Z,1019.01
2018-05-06T10:32:28.779Z,1018.88
2018-05-06T10:33:28.763Z,1018.88
2018-05-06T10:34:28.761Z,1018.84
2018-05-06T10:35:28.730Z,1018.93
2018-05-06T10:36:28.709Z,1018.90
2018-05-06T10:37:28.692Z,1018.91
2018-05-06T10:38:28.713Z,1018.89
2018-05-06T10:39:28.611Z,1018.87
2018-05-06T10:40:28.581Z,1018.89
2018-05-06T10:41:28.571Z,1018.80
2018-05-06T10:42:28.639Z,1018.74
2018-05-06T10:43:28.537Z,1018.70
2018-05-06T10:44:28.563Z,1018.71
2018-05-06T10:45:28.479Z,1018.68
2018-05-06T10:46:28.444Z,1018.74
2018-05-06T10:47:28.427Z,1018.72
2018-05-06T10:48:28.439Z,1018.66
2018-05-06T10:49:28.372Z,1018.65
2018-05-06T10:50:28.392Z,1018.68
2018-05-06T10:51:28.321Z,1018.69
2018-05-06T10:52:28.296Z,1018.70
2018-05-06T10:53:28.309Z,1018.71
2018-05-06T10:54:28.253Z,1018.68
2018-05-06T10:55:28.237Z,1018.66
2018-05-06T10:56:28.213Z,1018.70
2018-05-06T10:57:28.173Z,1018.68
2018-05-06T10:58:28.157Z,1018.67
2018-05-06T10:59:28.146Z,1018.65
2018-05-06T11:00:28.112Z,1018.63
2018-05-06T11:01:28.079Z,1018.59
2018-05-06T11:02:28.052Z,1018.58
2018-05-06T11:03:28.171Z,1018.55
2018-05-06T11:04:37.984Z,1018.59
2018-05-06T11:05:27.992Z,1018.60
2018-05-06T11:06:27.966Z,1018.57
2018-05-06T11:07:27.940Z,1018.53
2018-05-06T11:08:27.917Z,1018.57
2018-05-06T11:09:27.892Z,1018.56
2018-05-06T11:10:27.987Z,1018.56
2018-05-06T11:11:27.842Z,1018.49
2018-05-06T11:12:27.833Z,1018.48
2018-05-06T11:13:27.808Z,1018.50
2018-05-06T11:14:27.811Z,1018.50
2018-05-06T11:15:27.787Z,1018.49
2018-05-06T11:16:27.735Z,1018.44
2018-05-06T11:17:27.720Z,1018.44
2018-05-06T11:18:27.702Z,1018.41
2018-05-06T11:19:27.678Z,1018.39
2018-05-06T11:20:27.645Z,1018.42
2018-05-06T11:21:27.727Z,1018.41
2018-05-06T11:22:27.609Z,1018.45
2018-05-06T11:23:27.580Z,1018.44
2018-05-06T11:24:27.562Z,1018.49
2018-05-06T11:25:27.543Z,1018.44
2018-05-06T11:26:27.522Z,1018.43
2018-05-06T11:27:27.532Z,1018.45
2018-05-06T11:28:27.472Z,1018.41
2018-05-06T11:29:27.445Z,1018.37
2018-05-06T11:30:27.429Z,1018.35
2018-05-06T11:31:27.406Z,1018.37
2018-05-06T11:32:27.383Z,1018.35
2018-05-06T11:33:27.475Z,1018.33
2018-05-06T11:34:27.345Z,1018.39
2018-05-06T11:35:27.316Z,1018.35
2018-05-06T11:36:27.296Z,1018.36
2018-05-06T11:37:27.277Z,1018.36
2018-05-06T11:38:27.286Z,1018.30
2018-05-06T11:39:27.241Z,1018.34
2018-05-06T11:40:27.236Z,1018.36
2018-05-06T11:41:27.232Z,1018.30
2018-05-06T11:42:27.168Z,1018.29
2018-05-06T11:43:27.138Z,1018.26
2018-05-06T11:44:27.146Z,1018.30
2018-05-06T11:45:27.104Z,1018.32
2018-05-06T11:46:27.066Z,1018.27
2018-05-06T11:47:27.054Z,1018.31
2018-05-06T11:48:27.033Z,1018.31
2018-05-06T11:49:27.012Z,1018.31
2018-05-06T11:50:27.019Z,1018.32
2018-05-06T11:51:26.961Z,1018.31
2018-05-06T11:52:26.936Z,1018.32
2018-05-06T11:53:26.909Z,1018.28
2018-05-06T11:54:26.894Z,1018.27
2018-05-06T11:55:26.900Z,1018.27
2018-05-06T11:56:26.854Z,1018.30
2018-05-06T11:57:26.835Z,1018.30
2018-05-06T11:58:26.820Z,1018.32
2018-05-06T11:59:26.779Z,1018.27
2018-05-06T12:00:26.757Z,1018.30
2018-05-06T12:01:26.756Z,1018.34
2018-05-06T12:02:26.853Z,1018.40
2018-05-06T12:03:26.691Z,1018.37
2018-05-06T12:04:26.669Z,1018.33
2018-05-06T12:05:26.664Z,1018.32